sensor_id;sensor_type;location;lat;lon;timestamp;pressure;altitude;pressure_sealevel;temperature;humidity
22647;BME280;11490;42.726;23.268;2023-12-07T00:01:54;94854.88;;;5.77;100.00
22647;BME280;11490;42.726;23.268;2023-12-07T00:04:19;94842.19;;;5.61;100.00
22647;BME280;11490;42.726;23.268;2023-12-07T00:06:45;94857.72;;;5.51;100.00
22647;BME280;11490;42.726;23.268;2023-12-07T00:09:10;94849.56;;;5.53;100.00
22647;BME280;11490;42.726;23.268;2023-12-07T00:11:35;94837.53;;;5.32;100.00
22647;BME280;11490;42.726;23.268;2023-12-07T00:14:01;94831.78;;;5.35;100.00
22647;BME280;11490;42.726;23.268;2023-12-07T00:16:26;94846.88;;;5.59;100.00
22647;BME280;11490;42.726;23.268;2023-12-07T00:18:52;94874.22;;;5.78;100.00
22647;BME280;11490;42.726;23.268;2023-12-07T00:21:17;94829.66;;;5.50;100.00
22647;BME280;11490;42.726;23.268;2023-12-07T00:23:42;94821.47;;;5.27;100.00
22647;BME280;11490;42.726;23.268;2023-12-07T00:26:08;94868.75;;;5.48;100.00
22647;BME280;11490;42.726;23.268;2023-12-07T00:28:33;94869.81;;;5.65;100.00
22647;BME280;11490;42.726;23.268;2023-12-07T00:30:58;94862.47;;;5.67;100.00
22647;BME280;11490;42.726;23.268;2023-12-07T00:33:24;94882.69;;;5.87;100.00
22647;BME280;11490;42.726;23.268;2023-12-07T00:35:49;94860.16;;;5.77;100.00
22647;BME280;11490;42.726;23.268;2023-12-07T00:38:15;94895.25;;;5.98;100.00
22647;BME280;11490;42.726;23.268;2023-12-07T00:40:40;94864.00;;;5.81;100.00
22647;BME280;11490;42.726;23.268;2023-12-07T00:43:06;94867.84;;;5.86;100.00
22647;BME280;11490;42.726;23.268;2023-12-07T00:45:32;94864.16;;;5.87;100.00
22647;BME280;11490;42.726;23.268;2023-12-07T00:47:58;94860.00;;;5.72;100.00
22647;BME280;11490;42.726;23.268;2023-12-07T00:50:23;94864.66;;;5.77;100.00
22647;BME280;11490;42.726;23.268;2023-12-07T00:52:48;94852.34;;;5.64;100.00
22647;BME280;11490;42.726;23.268;2023-12-07T00:55:14;94880.22;;;5.92;100.00
22647;BME280;11490;42.726;23.268;2023-12-07T00:57:40;94866.78;;;5.93;100.00
22647;BME280;11490;42.726;23.268;2023-12-07T01:00:06;94871.41;;;5.98;100.00
22647;BME280;11490;42.726;23.268;2023-12-07T01:02:31;94868.94;;;6.03;100.00
22647;BME280;11490;42.726;23.268;2023-12-07T01:04:57;94862.72;;;5.91;100.00
22647;BME280;11490;42.726;23.268;2023-12-07T01:07:23;94862.59;;;5.54;100.00
22647;BME280;11490;42.726;23.268;2023-12-07T01:09:48;94852.41;;;5.26;100.00
22647;BME280;11490;42.726;23.268;2023-12-07T01:12:14;94820.66;;;5.01;100.00
22647;BME280;11490;42.726;23.268;2023-12-07T01:14:39;94843.75;;;5.13;100.00
22647;BME280;11490;42.726;23.268;2023-12-07T01:17:04;94857.56;;;5.15;100.00
22647;BME280;11490;42.726;23.268;2023-12-07T01:19:30;94839.47;;;5.12;100.00
22647;BME280;11490;42.726;23.268;2023-12-07T01:21:55;94860.97;;;5.53;100.00
22647;BME280;11490;42.726;23.268;2023-12-07T01:24:20;94846.97;;;5.46;100.00
22647;BME280;11490;42.726;23.268;2023-12-07T01:26:46;94858.22;;;5.66;100.00
22647;BME280;11490;42.726;23.268;2023-12-07T01:29:11;94853.63;;;5.55;100.00
22647;BME280;11490;42.726;23.268;2023-12-07T01:31:39;94876.25;;;5.76;100.00
22647;BME280;11490;42.726;23.268;2023-12-07T01:34:07;94875.56;;;5.62;100.00
22647;BME280;11490;42.726;23.268;2023-12-07T01:36:33;94865.31;;;5.72;100.00
22647;BME280;11490;42.726;23.268;2023-12-07T01:38:58;94867.69;;;5.80;100.00
22647;BME280;11490;42.726;23.268;2023-12-07T01:41:24;94845.91;;;5.78;100.00
22647;BME280;11490;42.726;23.268;2023-12-07T01:43:49;94854.28;;;5.75;100.00
22647;BME280;11490;42.726;23.268;2023-12-07T01:46:16;94846.59;;;5.67;100.00
22647;BME280;11490;42.726;23.268;2023-12-07T01:48:42;94836.47;;;5.64;100.00
22647;BME280;11490;42.726;23.268;2023-12-07T01:51:08;94857.94;;;5.74;100.00
22647;BME280;11490;42.726;23.268;2023-12-07T01:53:34;94814.09;;;5.60;100.00
22647;BME280;11490;42.726;23.268;2023-12-07T01:55:59;94848.09;;;5.81;100.00
22647;BME280;11490;42.726;23.268;2023-12-07T01:58:25;94829.56;;;5.63;100.00
22647;BME280;11490;42.726;23.268;2023-12-07T02:00:51;94846.19;;;5.70;100.00
22647;BME280;11490;42.726;23.268;2023-12-07T02:03:17;94815.72;;;5.61;100.00
22647;BME280;11490;42.726;23.268;2023-12-07T02:05:45;94825.22;;;5.44;100.00
22647;BME280;11490;42.726;23.268;2023-12-07T02:08:11;94830.19;;;5.34;100.00
22647;BME280;11490;42.726;23.268;2023-12-07T02:10:39;94860.09;;;5.59;100.00
22647;BME280;11490;42.726;23.268;2023-12-07T02:13:05;94827.38;;;5.29;100.00
22647;BME280;11490;42.726;23.268;2023-12-07T02:15:31;94818.16;;;5.07;100.00
22647;BME280;11490;42.726;23.268;2023-12-07T02:18:06;94860.22;;;5.46;100.00
22647;BME280;11490;42.726;23.268;2023-12-07T02:20:51;94817.56;;;5.36;100.00
22647;BME280;11490;42.726;23.268;2023-12-07T02:23:21;94827.25;;;5.49;100.00
22647;BME280;11490;42.726;23.268;2023-12-07T02:29:09;94816.66;;;5.49;100.00
22647;BME280;11490;42.726;23.268;2023-12-07T02:31:34;94831.66;;;5.55;100.00
22647;BME280;11490;42.726;23.268;2023-12-07T02:33:59;94814.66;;;5.13;100.00
22647;BME280;11490;42.726;23.268;2023-12-07T02:36:27;94827.56;;;5.34;100.00
22647;BME280;11490;42.726;23.268;2023-12-07T02:38:56;94860.28;;;5.64;100.00
22647;BME280;11490;42.726;23.268;2023-12-07T02:41:22;94811.56;;;5.47;100.00
22647;BME280;11490;42.726;23.268;2023-12-07T02:43:47;94801.59;;;5.49;100.00
22647;BME280;11490;42.726;23.268;2023-12-07T02:46:13;94802.63;;;5.48;100.00
22647;BME280;11490;42.726;23.268;2023-12-07T02:48:39;94837.69;;;5.62;100.00
22647;BME280;11490;42.726;23.268;2023-12-07T02:51:04;94822.56;;;5.44;100.00
22647;BME280;11490;42.726;23.268;2023-12-07T02:53:30;94820.00;;;5.62;100.00
22647;BME280;11490;42.726;23.268;2023-12-07T02:55:55;94807.31;;;5.46;100.00
22647;BME280;11490;42.726;23.268;2023-12-07T02:58:20;94827.19;;;5.55;100.00
22647;BME280;11490;42.726;23.268;2023-12-07T03:00:46;94812.13;;;5.56;100.00
22647;BME280;11490;42.726;23.268;2023-12-07T03:03:11;94797.75;;;5.45;100.00
22647;BME280;11490;42.726;23.268;2023-12-07T03:05:36;94834.63;;;5.40;100.00
22647;BME280;11490;42.726;23.268;2023-12-07T03:08:02;94812.72;;;5.33;100.00
22647;BME280;11490;42.726;23.268;2023-12-07T03:10:27;94849.97;;;5.56;100.00
22647;BME280;11490;42.726;23.268;2023-12-07T03:12:53;94833.34;;;5.49;100.00
22647;BME280;11490;42.726;23.268;2023-12-07T03:15:18;94819.19;;;5.37;100.00
22647;BME280;11490;42.726;23.268;2023-12-07T03:17:43;94794.88;;;5.22;100.00
22647;BME280;11490;42.726;23.268;2023-12-07T03:20:09;94809.88;;;5.28;100.00
22647;BME280;11490;42.726;23.268;2023-12-07T03:22:35;94797.47;;;4.97;100.00
22647;BME280;11490;42.726;23.268;2023-12-07T03:25:01;94829.00;;;5.30;100.00
22647;BME280;11490;42.726;23.268;2023-12-07T03:27:26;94825.59;;;5.23;100.00
22647;BME280;11490;42.726;23.268;2023-12-07T03:29:53;94818.25;;;5.25;100.00
22647;BME280;11490;42.726;23.268;2023-12-07T03:32:18;94859.34;;;5.52;100.00
22647;BME280;11490;42.726;23.268;2023-12-07T03:34:44;94836.66;;;5.38;100.00
22647;BME280;11490;42.726;23.268;2023-12-07T03:37:09;94830.97;;;5.34;100.00
22647;BME280;11490;42.726;23.268;2023-12-07T03:39:35;94845.34;;;5.45;100.00
22647;BME280;11490;42.726;23.268;2023-12-07T03:42:00;94856.34;;;5.42;100.00
22647;BME280;11490;42.726;23.268;2023-12-07T03:44:26;94829.09;;;5.17;100.00
22647;BME280;11490;42.726;23.268;2023-12-07T03:46:55;94864.25;;;5.17;100.00
22647;BME280;11490;42.726;23.268;2023-12-07T03:49:20;94828.75;;;5.07;100.00
22647;BME280;11490;42.726;23.268;2023-12-07T03:51:45;94838.66;;;5.18;100.00
22647;BME280;11490;42.726;23.268;2023-12-07T03:54:11;94834.69;;;5.33;100.00
22647;BME280;11490;42.726;23.268;2023-12-07T03:56:36;94850.78;;;5.57;100.00
22647;BME280;11490;42.726;23.268;2023-12-07T03:59:02;94841.44;;;5.54;100.00
22647;BME280;11490;42.726;23.268;2023-12-07T04:01:28;94830.09;;;5.47;100.00
22647;BME280;11490;42.726;23.268;2023-12-07T04:03:55;94854.50;;;5.49;100.00
22647;BME280;11490;42.726;23.268;2023-12-07T04:06:22;94833.00;;;5.39;100.00
22647;BME280;11490;42.726;23.268;2023-12-07T04:08:48;94830.16;;;5.40;100.00
22647;BME280;11490;42.726;23.268;2023-12-07T04:11:14;94836.63;;;5.45;100.00
22647;BME280;11490;42.726;23.268;2023-12-07T04:13:40;94811.50;;;5.29;100.00
22647;BME280;11490;42.726;23.268;2023-12-07T04:16:07;94828.06;;;5.49;100.00
22647;BME280;11490;42.726;23.268;2023-12-07T04:18:32;94831.97;;;5.40;100.00
22647;BME280;11490;42.726;23.268;2023-12-07T04:20:58;94856.88;;;5.57;100.00
22647;BME280;11490;42.726;23.268;2023-12-07T04:23:23;94846.81;;;5.10;100.00
22647;BME280;11490;42.726;23.268;2023-12-07T04:25:49;94845.53;;;4.87;100.00
22647;BME280;11490;42.726;23.268;2023-12-07T04:28:14;94869.03;;;5.02;100.00
22647;BME280;11490;42.726;23.268;2023-12-07T04:30:40;94854.81;;;4.96;100.00
22647;BME280;11490;42.726;23.268;2023-12-07T04:33:05;94852.88;;;5.17;100.00
22647;BME280;11490;42.726;23.268;2023-12-07T04:35:31;94890.72;;;5.42;100.00
22647;BME280;11490;42.726;23.268;2023-12-07T04:37:57;94845.38;;;5.14;100.00
22647;BME280;11490;42.726;23.268;2023-12-07T04:40:24;94857.59;;;5.08;100.00
22647;BME280;11490;42.726;23.268;2023-12-07T04:42:50;94887.66;;;5.45;100.00
22647;BME280;11490;42.726;23.268;2023-12-07T04:45:15;94876.31;;;5.38;100.00
22647;BME280;11490;42.726;23.268;2023-12-07T04:47:40;94843.84;;;5.31;100.00
22647;BME280;11490;42.726;23.268;2023-12-07T04:50:07;94882.22;;;5.40;100.00
22647;BME280;11490;42.726;23.268;2023-12-07T04:52:33;94890.88;;;5.54;100.00
22647;BME280;11490;42.726;23.268;2023-12-07T04:54:59;94870.53;;;5.23;100.00
22647;BME280;11490;42.726;23.268;2023-12-07T04:57:24;94863.63;;;5.22;100.00
22647;BME280;11490;42.726;23.268;2023-12-07T04:59:50;94906.09;;;5.58;100.00
22647;BME280;11490;42.726;23.268;2023-12-07T05:02:16;94905.41;;;5.69;100.00
22647;BME280;11490;42.726;23.268;2023-12-07T05:04:42;94874.78;;;5.55;100.00
22647;BME280;11490;42.726;23.268;2023-12-07T05:07:08;94874.84;;;5.49;100.00
22647;BME280;11490;42.726;23.268;2023-12-07T05:09:33;94895.44;;;5.71;100.00
22647;BME280;11490;42.726;23.268;2023-12-07T05:11:59;94875.66;;;5.49;100.00
22647;BME280;11490;42.726;23.268;2023-12-07T05:14:24;94868.66;;;5.30;100.00
22647;BME280;11490;42.726;23.268;2023-12-07T05:16:50;94891.53;;;5.49;100.00
22647;BME280;11490;42.726;23.268;2023-12-07T05:19:22;94879.97;;;5.06;100.00
22647;BME280;11490;42.726;23.268;2023-12-07T05:21:48;94909.84;;;5.06;100.00
22647;BME280;11490;42.726;23.268;2023-12-07T05:24:13;94880.13;;;4.79;100.00
22647;BME280;11490;42.726;23.268;2023-12-07T05:26:42;94907.13;;;4.81;100.00
22647;BME280;11490;42.726;23.268;2023-12-07T05:29:08;94883.03;;;4.64;100.00
22647;BME280;11490;42.726;23.268;2023-12-07T05:31:38;94887.09;;;4.60;100.00
22647;BME280;11490;42.726;23.268;2023-12-07T05:34:04;94882.56;;;4.74;100.00
22647;BME280;11490;42.726;23.268;2023-12-07T05:36:30;94921.78;;;5.22;100.00
22647;BME280;11490;42.726;23.268;2023-12-07T05:38:56;94886.06;;;5.06;100.00
22647;BME280;11490;42.726;23.268;2023-12-07T05:41:21;94889.00;;;4.91;100.00
22647;BME280;11490;42.726;23.268;2023-12-07T05:43:47;94921.22;;;5.13;100.00
22647;BME280;11490;42.726;23.268;2023-12-07T05:46:13;94916.44;;;5.28;100.00
22647;BME280;11490;42.726;23.268;2023-12-07T05:48:39;94890.13;;;5.09;100.00
22647;BME280;11490;42.726;23.268;2023-12-07T05:51:04;94903.84;;;5.30;100.00
22647;BME280;11490;42.726;23.268;2023-12-07T05:53:30;94898.22;;;5.14;100.00
22647;BME280;11490;42.726;23.268;2023-12-07T05:55:58;94933.03;;;5.42;100.00
22647;BME280;11490;42.726;23.268;2023-12-07T05:58:24;94894.97;;;5.12;100.00
22647;BME280;11490;42.726;23.268;2023-12-07T06:00:49;94926.16;;;5.34;100.00
22647;BME280;11490;42.726;23.268;2023-12-07T06:03:15;94923.19;;;5.24;100.00
22647;BME280;11490;42.726;23.268;2023-12-07T06:05:46;94895.34;;;5.22;100.00
22647;BME280;11490;42.726;23.268;2023-12-07T06:08:12;94896.97;;;5.23;100.00
22647;BME280;11490;42.726;23.268;2023-12-07T06:10:45;94922.59;;;5.54;100.00
22647;BME280;11490;42.726;23.268;2023-12-07T06:13:11;94921.38;;;5.56;100.00
22647;BME280;11490;42.726;23.268;2023-12-07T06:15:37;94918.44;;;5.39;100.00
22647;BME280;11490;42.726;23.268;2023-12-07T06:18:02;94938.59;;;5.65;100.00
22647;BME280;11490;42.726;23.268;2023-12-07T06:20:28;94934.13;;;5.66;100.00
22647;BME280;11490;42.726;23.268;2023-12-07T06:22:54;94893.56;;;5.47;100.00
22647;BME280;11490;42.726;23.268;2023-12-07T06:25:19;94933.91;;;5.67;100.00
22647;BME280;11490;42.726;23.268;2023-12-07T06:27:45;94905.31;;;5.51;100.00
22647;BME280;11490;42.726;23.268;2023-12-07T06:30:18;94958.84;;;5.85;100.00
22647;BME280;11490;42.726;23.268;2023-12-07T06:32:47;94902.25;;;5.54;100.00
22647;BME280;11490;42.726;23.268;2023-12-07T06:35:14;94908.72;;;5.58;100.00
22647;BME280;11490;42.726;23.268;2023-12-07T06:37:43;94915.06;;;5.57;100.00
22647;BME280;11490;42.726;23.268;2023-12-07T06:40:09;94928.63;;;5.67;100.00
22647;BME280;11490;42.726;23.268;2023-12-07T06:42:48;94958.84;;;5.85;100.00
22647;BME280;11490;42.726;23.268;2023-12-07T06:45:14;94942.72;;;5.93;100.00
22647;BME280;11490;42.726;23.268;2023-12-07T06:47:40;94943.75;;;5.92;100.00
22647;BME280;11490;42.726;23.268;2023-12-07T06:50:08;94944.50;;;5.99;100.00
22647;BME280;11490;42.726;23.268;2023-12-07T06:52:35;94939.41;;;5.97;100.00
22647;BME280;11490;42.726;23.268;2023-12-07T06:55:01;94975.47;;;6.23;100.00
22647;BME280;11490;42.726;23.268;2023-12-07T06:57:27;94930.31;;;5.93;100.00
22647;BME280;11490;42.726;23.268;2023-12-07T06:59:53;94925.22;;;5.92;100.00
22647;BME280;11490;42.726;23.268;2023-12-07T07:02:21;94971.31;;;6.09;100.00
22647;BME280;11490;42.726;23.268;2023-12-07T07:04:47;94912.47;;;5.75;100.00
22647;BME280;11490;42.726;23.268;2023-12-07T07:07:14;94957.47;;;6.07;100.00
22647;BME280;11490;42.726;23.268;2023-12-07T07:09:40;94942.50;;;5.94;100.00
22647;BME280;11490;42.726;23.268;2023-12-07T07:12:05;94946.13;;;6.00;100.00
22647;BME280;11490;42.726;23.268;2023-12-07T07:14:31;94908.06;;;5.69;100.00
22647;BME280;11490;42.726;23.268;2023-12-07T07:16:56;94942.88;;;5.98;100.00
22647;BME280;11490;42.726;23.268;2023-12-07T07:19:22;94969.53;;;6.03;100.00
22647;BME280;11490;42.726;23.268;2023-12-07T07:21:47;94937.75;;;5.71;100.00
22647;BME280;11490;42.726;23.268;2023-12-07T07:24:14;94970.81;;;5.94;100.00
22647;BME280;11490;42.726;23.268;2023-12-07T07:26:40;94974.28;;;5.94;100.00
22647;BME280;11490;42.726;23.268;2023-12-07T07:29:05;94943.47;;;5.68;100.00
22647;BME280;11490;42.726;23.268;2023-12-07T07:31:31;94987.31;;;5.96;100.00
22647;BME280;11490;42.726;23.268;2023-12-07T07:33:59;94940.00;;;5.36;100.00
22647;BME280;11490;42.726;23.268;2023-12-07T07:36:25;94946.53;;;5.34;100.00
22647;BME280;11490;42.726;23.268;2023-12-07T07:38:50;94987.50;;;5.56;100.00
22647;BME280;11490;42.726;23.268;2023-12-07T07:41:16;94983.13;;;5.37;100.00
22647;BME280;11490;42.726;23.268;2023-12-07T07:43:41;94982.34;;;5.30;100.00
22647;BME280;11490;42.726;23.268;2023-12-07T07:46:15;94952.56;;;5.10;100.00
22647;BME280;11490;42.726;23.268;2023-12-07T08:10:47;95015.75;;;5.18;100.00
22647;BME280;11490;42.726;23.268;2023-12-07T08:16:57;94978.47;;;4.75;100.00
22647;BME280;11490;42.726;23.268;2023-12-07T08:19:23;94931.47;;;4.25;100.00
22647;BME280;11490;42.726;23.268;2023-12-07T08:22:02;95012.81;;;4.68;100.00
22647;BME280;11490;42.726;23.268;2023-12-07T08:25:08;95035.16;;;4.79;100.00
22647;BME280;11490;42.726;23.268;2023-12-07T08:28:15;95047.13;;;4.94;100.00
22647;BME280;11490;42.726;23.268;2023-12-07T08:30:53;94998.44;;;4.44;100.00
22647;BME280;11490;42.726;23.268;2023-12-07T08:36:58;95011.41;;;4.59;100.00
22647;BME280;11490;42.726;23.268;2023-12-07T08:40:02;94949.94;;;4.25;100.00
22647;BME280;11490;42.726;23.268;2023-12-07T08:42:30;95066.66;;;4.80;100.00
22647;BME280;11490;42.726;23.268;2023-12-07T08:45:34;95063.22;;;4.67;100.00
22647;BME280;11490;42.726;23.268;2023-12-07T08:48:05;95034.38;;;4.52;100.00
22647;BME280;11490;42.726;23.268;2023-12-07T08:50:57;95011.03;;;4.36;100.00
22647;BME280;11490;42.726;23.268;2023-12-07T08:53:37;95028.91;;;4.47;100.00
22647;BME280;11490;42.726;23.268;2023-12-07T08:56:09;95063.81;;;4.69;100.00
22647;BME280;11490;42.726;23.268;2023-12-07T08:58:34;94983.63;;;4.23;100.00
22647;BME280;11490;42.726;23.268;2023-12-07T09:01:00;95024.03;;;4.44;100.00
22647;BME280;11490;42.726;23.268;2023-12-07T09:03:25;95047.38;;;4.53;100.00
22647;BME280;11490;42.726;23.268;2023-12-07T09:06:00;94998.66;;;4.16;100.00
22647;BME280;11490;42.726;23.268;2023-12-07T09:08:25;95037.44;;;4.36;100.00
22647;BME280;11490;42.726;23.268;2023-12-07T09:10:53;95019.97;;;4.41;100.00
22647;BME280;11490;42.726;23.268;2023-12-07T09:13:19;95065.88;;;4.47;100.00
22647;BME280;11490;42.726;23.268;2023-12-07T09:15:47;95032.34;;;4.21;100.00
22647;BME280;11490;42.726;23.268;2023-12-07T09:18:12;95000.88;;;3.93;100.00
22647;BME280;11490;42.726;23.268;2023-12-07T09:20:39;95050.81;;;4.28;100.00
22647;BME280;11490;42.726;23.268;2023-12-07T09:23:11;95063.63;;;4.50;100.00
22647;BME280;11490;42.726;23.268;2023-12-07T09:25:38;95006.56;;;3.90;100.00
22647;BME280;11490;42.726;23.268;2023-12-07T09:28:03;94991.53;;;4.04;100.00
22647;BME280;11490;42.726;23.268;2023-12-07T09:30:29;95026.06;;;4.15;100.00
22647;BME280;11490;42.726;23.268;2023-12-07T09:32:55;95039.03;;;3.97;100.00
22647;BME280;11490;42.726;23.268;2023-12-07T09:35:20;95052.84;;;4.19;100.00
22647;BME280;11490;42.726;23.268;2023-12-07T09:37:49;94995.78;;;3.85;100.00
22647;BME280;11490;42.726;23.268;2023-12-07T09:40:22;95044.34;;;4.17;100.00
22647;BME280;11490;42.726;23.268;2023-12-07T09:42:48;95039.22;;;3.89;100.00
22647;BME280;11490;42.726;23.268;2023-12-07T09:45:15;95046.97;;;4.17;100.00
22647;BME280;11490;42.726;23.268;2023-12-07T09:47:42;95060.59;;;4.47;100.00
22647;BME280;11490;42.726;23.268;2023-12-07T09:50:09;95048.19;;;4.28;100.00
22647;BME280;11490;42.726;23.268;2023-12-07T09:52:35;95067.47;;;4.21;100.00
22647;BME280;11490;42.726;23.268;2023-12-07T09:55:02;95026.06;;;4.02;100.00
22647;BME280;11490;42.726;23.268;2023-12-07T09:57:28;95035.56;;;3.90;100.00
22647;BME280;11490;42.726;23.268;2023-12-07T09:59:55;95013.00;;;3.68;100.00
22647;BME280;11490;42.726;23.268;2023-12-07T10:02:21;95045.09;;;3.78;100.00
22647;BME280;11490;42.726;23.268;2023-12-07T10:04:47;95075.16;;;4.03;100.00
22647;BME280;11490;42.726;23.268;2023-12-07T10:07:13;95028.44;;;3.77;100.00
22647;BME280;11490;42.726;23.268;2023-12-07T10:09:40;95059.75;;;4.00;100.00
22647;BME280;11490;42.726;23.268;2023-12-07T10:12:15;95037.19;;;3.91;100.00
22647;BME280;11490;42.726;23.268;2023-12-07T10:14:41;95057.50;;;4.04;100.00
22647;BME280;11490;42.726;23.268;2023-12-07T10:17:06;95063.41;;;4.19;100.00
22647;BME280;11490;42.726;23.268;2023-12-07T10:19:32;95057.69;;;3.96;100.00
22647;BME280;11490;42.726;23.268;2023-12-07T10:21:59;95036.78;;;3.87;100.00
22647;BME280;11490;42.726;23.268;2023-12-07T10:24:25;95028.06;;;3.87;100.00
22647;BME280;11490;42.726;23.268;2023-12-07T10:26:56;95003.72;;;3.78;100.00
22647;BME280;11490;42.726;23.268;2023-12-07T10:29:22;95018.53;;;3.86;100.00
22647;BME280;11490;42.726;23.268;2023-12-07T10:31:48;95020.72;;;3.63;100.00
22647;BME280;11490;42.726;23.268;2023-12-07T10:34:17;95058.50;;;3.96;100.00
22647;BME280;11490;42.726;23.268;2023-12-07T10:36:48;95066.66;;;4.01;100.00
22647;BME280;11490;42.726;23.268;2023-12-07T10:39:16;95026.81;;;3.70;100.00
22647;BME280;11490;42.726;23.268;2023-12-07T10:41:43;95038.00;;;3.78;100.00
22647;BME280;11490;42.726;23.268;2023-12-07T10:44:11;95044.22;;;3.58;100.00
22647;BME280;11490;42.726;23.268;2023-12-07T10:46:39;95003.41;;;3.40;100.00
22647;BME280;11490;42.726;23.268;2023-12-07T10:49:12;95065.84;;;3.94;100.00
22647;BME280;11490;42.726;23.268;2023-12-07T10:51:44;95026.41;;;3.73;100.00
22647;BME280;11490;42.726;23.268;2023-12-07T10:54:14;95022.72;;;3.61;100.00
22647;BME280;11490;42.726;23.268;2023-12-07T10:56:48;95041.72;;;3.43;100.00
22647;BME280;11490;42.726;23.268;2023-12-07T10:59:16;95052.34;;;3.63;100.00
22647;BME280;11490;42.726;23.268;2023-12-07T11:02:19;94974.47;;;2.93;100.00
22647;BME280;11490;42.726;23.268;2023-12-07T11:04:46;95000.31;;;3.24;100.00
22647;BME280;11490;42.726;23.268;2023-12-07T11:07:14;95073.50;;;3.76;100.00
22647;BME280;11490;42.726;23.268;2023-12-07T11:09:57;95038.56;;;3.61;100.00
22647;BME280;11490;42.726;23.268;2023-12-07T11:12:45;95022.69;;;3.47;100.00
22647;BME280;11490;42.726;23.268;2023-12-07T11:15:19;95040.38;;;3.67;100.00
22647;BME280;11490;42.726;23.268;2023-12-07T11:17:51;95069.66;;;3.85;100.00
22647;BME280;11490;42.726;23.268;2023-12-07T11:20:56;95020.91;;;3.07;100.00
22647;BME280;11490;42.726;23.268;2023-12-07T11:23:27;95056.81;;;3.56;100.00
22647;BME280;11490;42.726;23.268;2023-12-07T11:25:53;95009.63;;;3.20;100.00
22647;BME280;11490;42.726;23.268;2023-12-07T11:28:34;95028.53;;;3.36;100.00
22647;BME280;11490;42.726;23.268;2023-12-07T11:31:00;95047.78;;;3.30;100.00
22647;BME280;11490;42.726;23.268;2023-12-07T11:33:29;95053.91;;;3.44;100.00
22647;BME280;11490;42.726;23.268;2023-12-07T11:38:32;95046.63;;;3.46;100.00
22647;BME280;11490;42.726;23.268;2023-12-07T11:40:57;95046.91;;;3.71;100.00
22647;BME280;11490;42.726;23.268;2023-12-07T11:45:58;95028.81;;;3.55;100.00
22647;BME280;11490;42.726;23.268;2023-12-07T11:48:24;95024.13;;;3.57;100.00
22647;BME280;11490;42.726;23.268;2023-12-07T11:51:02;95040.22;;;3.75;100.00
22647;BME280;11490;42.726;23.268;2023-12-07T11:53:29;94977.44;;;3.37;100.00
22647;BME280;11490;42.726;23.268;2023-12-07T11:55:57;95055.03;;;3.89;100.00
22647;BME280;11490;42.726;23.268;2023-12-07T11:58:24;95064.75;;;3.69;100.00
22647;BME280;11490;42.726;23.268;2023-12-07T12:00:51;95034.84;;;3.48;100.00
22647;BME280;11490;42.726;23.268;2023-12-07T12:03:17;95023.91;;;3.52;100.00
22647;BME280;11490;42.726;23.268;2023-12-07T12:05:42;95014.72;;;3.34;100.00
22647;BME280;11490;42.726;23.268;2023-12-07T12:08:09;95059.25;;;3.64;100.00
22647;BME280;11490;42.726;23.268;2023-12-07T12:10:35;95030.00;;;3.52;100.00
22647;BME280;11490;42.726;23.268;2023-12-07T12:13:02;95018.66;;;3.52;100.00
22647;BME280;11490;42.726;23.268;2023-12-07T12:15:31;95019.44;;;3.45;100.00
22647;BME280;11490;42.726;23.268;2023-12-07T12:17:57;94998.38;;;3.52;100.00
22647;BME280;11490;42.726;23.268;2023-12-07T12:20:24;95032.47;;;3.67;100.00
22647;BME280;11490;42.726;23.268;2023-12-07T12:22:50;95023.94;;;3.65;100.00
22647;BME280;11490;42.726;23.268;2023-12-07T12:25:22;95021.94;;;3.67;100.00
22647;BME280;11490;42.726;23.268;2023-12-07T12:27:50;95007.72;;;3.55;100.00
22647;BME280;11490;42.726;23.268;2023-12-07T12:30:16;95049.47;;;3.51;100.00
22647;BME280;11490;42.726;23.268;2023-12-07T12:32:44;95021.44;;;3.37;100.00
22647;BME280;11490;42.726;23.268;2023-12-07T12:35:09;94997.03;;;3.15;100.00
22647;BME280;11490;42.726;23.268;2023-12-07T12:37:36;95061.69;;;3.72;100.00
22647;BME280;11490;42.726;23.268;2023-12-07T12:40:07;95030.34;;;3.29;100.00
22647;BME280;11490;42.726;23.268;2023-12-07T12:42:33;95012.00;;;3.08;100.00
22647;BME280;11490;42.726;23.268;2023-12-07T12:44:59;95034.81;;;3.35;100.00
22647;BME280;11490;42.726;23.268;2023-12-07T12:47:25;95023.88;;;3.32;100.00
22647;BME280;11490;42.726;23.268;2023-12-07T12:49:51;95063.28;;;3.53;100.00
22647;BME280;11490;42.726;23.268;2023-12-07T12:52:16;95012.06;;;3.21;100.00
22647;BME280;11490;42.726;23.268;2023-12-07T12:54:43;95055.09;;;3.35;100.00
22647;BME280;11490;42.726;23.268;2023-12-07T12:57:09;95022.59;;;3.21;100.00
22647;BME280;11490;42.726;23.268;2023-12-07T12:59:35;95083.16;;;3.56;100.00
22647;BME280;11490;42.726;23.268;2023-12-07T13:02:01;95063.56;;;3.24;100.00
22647;BME280;11490;42.726;23.268;2023-12-07T13:04:29;95032.75;;;3.24;100.00
22647;BME280;11490;42.726;23.268;2023-12-07T13:06:56;95019.13;;;3.14;100.00
22647;BME280;11490;42.726;23.268;2023-12-07T13:09:21;95046.53;;;3.26;100.00
22647;BME280;11490;42.726;23.268;2023-12-07T13:11:47;95056.31;;;3.32;100.00
22647;BME280;11490;42.726;23.268;2023-12-07T13:14:12;95044.84;;;3.12;100.00
22647;BME280;11490;42.726;23.268;2023-12-07T13:16:38;95085.97;;;3.47;100.00
22647;BME280;11490;42.726;23.268;2023-12-07T13:19:03;95071.72;;;3.35;100.00
22647;BME280;11490;42.726;23.268;2023-12-07T13:21:29;95090.63;;;3.45;100.00
22647;BME280;11490;42.726;23.268;2023-12-07T13:23:54;95047.50;;;2.78;100.00
22647;BME280;11490;42.726;23.268;2023-12-07T13:26:20;95055.63;;;2.83;100.00
22647;BME280;11490;42.726;23.268;2023-12-07T13:28:48;95065.00;;;2.92;100.00
22647;BME280;11490;42.726;23.268;2023-12-07T13:31:13;95086.94;;;2.99;100.00